sensor_id;sensor_type;location;lat;lon;timestamp;P1;durP1;ratioP1;P2;durP2;ratioP2
56045;SDS011;41913;51.030;3.706;2023-05-10T00:00:37;2.08;;;1.48;;
56045;SDS011;41913;51.030;3.706;2023-05-10T00:03:04;2.38;;;2.17;;
56045;SDS011;41913;51.030;3.706;2023-05-10T00:05:30;2.30;;;2.10;;
56045;SDS011;41913;51.030;3.706;2023-05-10T00:07:56;2.40;;;2.20;;
56045;SDS011;41913;51.030;3.706;2023-05-10T00:10:22;2.70;;;2.03;;
56045;SDS011;41913;51.030;3.706;2023-05-10T00:12:48;4.32;;;2.10;;
56045;SDS011;41913;51.030;3.706;2023-05-10T00:15:13;2.38;;;2.10;;
56045;SDS011;41913;51.030;3.706;2023-05-10T00:17:39;3.38;;;1.92;;
56045;SDS011;41913;51.030;3.706;2023-05-10T00:20:05;2.22;;;2.13;;
56045;SDS011;41913;51.030;3.706;2023-05-10T00:22:32;2.85;;;2.20;;
56045;SDS011;41913;51.030;3.706;2023-05-10T00:24:58;3.97;;;2.25;;
56045;SDS011;41913;51.030;3.706;2023-05-10T00:27:26;2.10;;;2.00;;
56045;SDS011;41913;51.030;3.706;2023-05-10T00:29:52;2.25;;;2.05;;
56045;SDS011;41913;51.030;3.706;2023-05-10T00:32:18;3.78;;;2.45;;
56045;SDS011;41913;51.030;3.706;2023-05-10T00:34:44;2.22;;;2.03;;
56045;SDS011;41913;51.030;3.706;2023-05-10T00:37:09;2.17;;;1.77;;
56045;SDS011;41913;51.030;3.706;2023-05-10T00:39:35;2.72;;;2.50;;
56045;SDS011;41913;51.030;3.706;2023-05-10T00:42:02;2.10;;;1.98;;
56045;SDS011;41913;51.030;3.706;2023-05-10T00:44:29;2.95;;;2.75;;
56045;SDS011;41913;51.030;3.706;2023-05-10T00:46:56;2.53;;;2.33;;
56045;SDS011;41913;51.030;3.706;2023-05-10T00:49:22;3.03;;;2.83;;
56045;SDS011;41913;51.030;3.706;2023-05-10T00:51:48;2.72;;;1.92;;
56045;SDS011;41913;51.030;3.706;2023-05-10T00:54:14;3.05;;;2.75;;
56045;SDS011;41913;51.030;3.706;2023-05-10T00:56:41;2.60;;;2.45;;
56045;SDS011;41913;51.030;3.706;2023-05-10T00:59:08;3.25;;;2.35;;
56045;SDS011;41913;51.030;3.706;2023-05-10T01:01:35;2.75;;;2.55;;
56045;SDS011;41913;51.030;3.706;2023-05-10T01:04:01;2.70;;;2.60;;
56045;SDS011;41913;51.030;3.706;2023-05-10T01:06:28;2.80;;;2.60;;
56045;SDS011;41913;51.030;3.706;2023-05-10T01:08:53;2.72;;;2.50;;
56045;SDS011;41913;51.030;3.706;2023-05-10T01:11:21;2.97;;;2.72;;
56045;SDS011;41913;51.030;3.706;2023-05-10T01:13:51;3.13;;;2.83;;
56045;SDS011;41913;51.030;3.706;2023-05-10T01:16:21;3.85;;;3.13;;
56045;SDS011;41913;51.030;3.706;2023-05-10T01:18:48;3.25;;;3.05;;
56045;SDS011;41913;51.030;3.706;2023-05-10T01:27:10;3.75;;;3.53;;
56045;SDS011;41913;51.030;3.706;2023-05-10T01:30:15;4.00;;;3.70;;
56045;SDS011;41913;51.030;3.706;2023-05-10T01:38:55;4.05;;;3.72;;
56045;SDS011;41913;51.030;3.706;2023-05-10T01:44:14;4.13;;;3.75;;
56045;SDS011;41913;51.030;3.706;2023-05-10T01:46:48;3.85;;;3.55;;
56045;SDS011;41913;51.030;3.706;2023-05-10T01:49:26;4.50;;;4.18;;
56045;SDS011;41913;51.030;3.706;2023-05-10T01:52:00;4.32;;;4.03;;
56045;SDS011;41913;51.030;3.706;2023-05-10T01:54:34;5.65;;;5.03;;
56045;SDS011;41913;51.030;3.706;2023-05-10T01:57:03;4.38;;;4.18;;
56045;SDS011;41913;51.030;3.706;2023-05-10T01:59:34;4.70;;;4.30;;
56045;SDS011;41913;51.030;3.706;2023-05-10T02:02:02;5.60;;;5.10;;
56045;SDS011;41913;51.030;3.706;2023-05-10T02:04:30;5.40;;;4.90;;
56045;SDS011;41913;51.030;3.706;2023-05-10T02:06:58;5.65;;;5.13;;
56045;SDS011;41913;51.030;3.706;2023-05-10T02:09:24;6.53;;;5.60;;
56045;SDS011;41913;51.030;3.706;2023-05-10T02:11:52;5.25;;;4.82;;
56045;SDS011;41913;51.030;3.706;2023-05-10T02:14:18;6.07;;;5.63;;
56045;SDS011;41913;51.030;3.706;2023-05-10T02:16:45;5.50;;;5.10;;
56045;SDS011;41913;51.030;3.706;2023-05-10T02:19:12;6.15;;;5.55;;
56045;SDS011;41913;51.030;3.706;2023-05-10T02:21:39;6.10;;;5.60;;
56045;SDS011;41913;51.030;3.706;2023-05-10T02:24:06;6.32;;;5.72;;
56045;SDS011;41913;51.030;3.706;2023-05-10T02:26:34;6.15;;;5.65;;
56045;SDS011;41913;51.030;3.706;2023-05-10T02:29:04;6.75;;;6.10;;
56045;SDS011;41913;51.030;3.706;2023-05-10T02:31:32;5.30;;;4.93;;
56045;SDS011;41913;51.030;3.706;2023-05-10T02:34:00;5.07;;;4.68;;
56045;SDS011;41913;51.030;3.706;2023-05-10T02:36:27;6.28;;;5.68;;
56045;SDS011;41913;51.030;3.706;2023-05-10T02:38:53;8.63;;;5.88;;
56045;SDS011;41913;51.030;3.706;2023-05-10T02:41:20;5.40;;;4.90;;
56045;SDS011;41913;51.030;3.706;2023-05-10T02:43:49;6.25;;;5.75;;
56045;SDS011;41913;51.030;3.706;2023-05-10T02:46:17;5.07;;;4.68;;
56045;SDS011;41913;51.030;3.706;2023-05-10T02:48:43;4.93;;;4.53;;
56045;SDS011;41913;51.030;3.706;2023-05-10T02:51:09;5.00;;;4.60;;
56045;SDS011;41913;51.030;3.706;2023-05-10T02:53:40;5.22;;;4.72;;
56045;SDS011;41913;51.030;3.706;2023-05-10T02:56:54;4.78;;;4.47;;
56045;SDS011;41913;51.030;3.706;2023-05-10T02:59:00;5.95;;;5.35;;
56045;SDS011;41913;51.030;3.706;2023-05-10T03:01:26;6.35;;;5.03;;
56045;SDS011;41913;51.030;3.706;2023-05-10T03:03:52;6.13;;;5.53;;
56045;SDS011;41913;51.030;3.706;2023-05-10T03:06:17;5.40;;;4.90;;
56045;SDS011;41913;51.030;3.706;2023-05-10T03:08:43;5.63;;;4.32;;
56045;SDS011;41913;51.030;3.706;2023-05-10T03:13:48;4.55;;;4.20;;
56045;SDS011;41913;51.030;3.706;2023-05-10T03:16:45;8.10;;;4.85;;
56045;SDS011;41913;51.030;3.706;2023-05-10T03:19:26;4.97;;;4.40;;
56045;SDS011;41913;51.030;3.706;2023-05-10T03:21:58;4.97;;;4.45;;
56045;SDS011;41913;51.030;3.706;2023-05-10T03:24:29;4.97;;;4.68;;
56045;SDS011;41913;51.030;3.706;2023-05-10T03:26:56;5.38;;;4.95;;
56045;SDS011;41913;51.030;3.706;2023-05-10T03:29:27;5.07;;;4.60;;
56045;SDS011;41913;51.030;3.706;2023-05-10T03:31:54;4.85;;;4.45;;
56045;SDS011;41913;51.030;3.706;2023-05-10T03:34:23;4.20;;;3.63;;
56045;SDS011;41913;51.030;3.706;2023-05-10T03:36:49;4.22;;;3.80;;
56045;SDS011;41913;51.030;3.706;2023-05-10T03:39:16;3.83;;;3.53;;
56045;SDS011;41913;51.030;3.706;2023-05-10T03:41:41;4.80;;;4.40;;
56045;SDS011;41913;51.030;3.706;2023-05-10T03:44:07;4.00;;;3.60;;
56045;SDS011;41913;51.030;3.706;2023-05-10T03:46:33;4.45;;;4.13;;
56045;SDS011;41913;51.030;3.706;2023-05-10T03:48:59;4.72;;;3.75;;
56045;SDS011;41913;51.030;3.706;2023-05-10T03:51:24;6.28;;;4.53;;
56045;SDS011;41913;51.030;3.706;2023-05-10T03:53:53;4.30;;;4.00;;
56045;SDS011;41913;51.030;3.706;2023-05-10T03:56:20;5.00;;;4.55;;
56045;SDS011;41913;51.030;3.706;2023-05-10T03:58:46;4.70;;;3.83;;
56045;SDS011;41913;51.030;3.706;2023-05-10T04:01:12;3.80;;;3.60;;
56045;SDS011;41913;51.030;3.706;2023-05-10T04:03:39;4.30;;;3.58;;
56045;SDS011;41913;51.030;3.706;2023-05-10T04:06:05;3.70;;;3.40;;
56045;SDS011;41913;51.030;3.706;2023-05-10T04:08:33;3.65;;;3.38;;
56045;SDS011;41913;51.030;3.706;2023-05-10T04:11:09;3.20;;;3.00;;
56045;SDS011;41913;51.030;3.706;2023-05-10T04:13:35;4.03;;;3.33;;
56045;SDS011;41913;51.030;3.706;2023-05-10T04:16:01;3.42;;;3.03;;
56045;SDS011;41913;51.030;3.706;2023-05-10T04:18:27;3.47;;;3.28;;
56045;SDS011;41913;51.030;3.706;2023-05-10T04:20:53;3.83;;;3.53;;
56045;SDS011;41913;51.030;3.706;2023-05-10T04:23:19;3.33;;;3.08;;
56045;SDS011;41913;51.030;3.706;2023-05-10T04:25:45;3.30;;;3.10;;
56045;SDS011;41913;51.030;3.706;2023-05-10T04:28:10;3.17;;;2.97;;
56045;SDS011;41913;51.030;3.706;2023-05-10T04:30:36;2.72;;;2.63;;
56045;SDS011;41913;51.030;3.706;2023-05-10T04:33:03;3.90;;;3.60;;
56045;SDS011;41913;51.030;3.706;2023-05-10T04:35:28;2.97;;;2.78;;
56045;SDS011;41913;51.030;3.706;2023-05-10T04:37:54;3.40;;;3.20;;
56045;SDS011;41913;51.030;3.706;2023-05-10T04:40:21;4.15;;;3.35;;
56045;SDS011;41913;51.030;3.706;2023-05-10T04:42:47;2.83;;;2.63;;
56045;SDS011;41913;51.030;3.706;2023-05-10T04:45:12;2.85;;;2.63;;
56045;SDS011;41913;51.030;3.706;2023-05-10T04:47:39;3.95;;;3.55;;
56045;SDS011;41913;51.030;3.706;2023-05-10T04:50:05;3.20;;;2.97;;
56045;SDS011;41913;51.030;3.706;2023-05-10T04:52:32;3.55;;;3.05;;
56045;SDS011;41913;51.030;3.706;2023-05-10T04:54:58;3.75;;;3.45;;
56045;SDS011;41913;51.030;3.706;2023-05-10T04:57:23;3.05;;;2.90;;
56045;SDS011;41913;51.030;3.706;2023-05-10T04:59:50;4.47;;;3.47;;
56045;SDS011;41913;51.030;3.706;2023-05-10T05:02:17;3.05;;;2.83;;
56045;SDS011;41913;51.030;3.706;2023-05-10T05:04:43;3.67;;;3.47;;
56045;SDS011;41913;51.030;3.706;2023-05-10T05:07:08;3.47;;;3.20;;
56045;SDS011;41913;51.030;3.706;2023-05-10T05:09:34;3.38;;;3.10;;
56045;SDS011;41913;51.030;3.706;2023-05-10T05:12:01;3.45;;;3.15;;
56045;SDS011;41913;51.030;3.706;2023-05-10T05:14:27;3.90;;;3.55;;
56045;SDS011;41913;51.030;3.706;2023-05-10T05:16:52;3.10;;;2.90;;
56045;SDS011;41913;51.030;3.706;2023-05-10T05:19:19;2.80;;;2.67;;
56045;SDS011;41913;51.030;3.706;2023-05-10T05:21:45;2.75;;;2.55;;
56045;SDS011;41913;51.030;3.706;2023-05-10T05:24:10;3.28;;;3.00;;
56045;SDS011;41913;51.030;3.706;2023-05-10T05:26:38;6.13;;;3.15;;
56045;SDS011;41913;51.030;3.706;2023-05-10T05:29:04;5.38;;;4.10;;
56045;SDS011;41913;51.030;3.706;2023-05-10T05:31:30;4.43;;;3.80;;
56045;SDS011;41913;51.030;3.706;2023-05-10T05:36:24;23.13;;;6.32;;
56045;SDS011;41913;51.030;3.706;2023-05-10T05:38:50;28.38;;;6.38;;
56045;SDS011;41913;51.030;3.706;2023-05-10T05:41:16;30.58;;;6.97;;
56045;SDS011;41913;51.030;3.706;2023-05-10T05:43:41;15.27;;;6.88;;
56045;SDS011;41913;51.030;3.706;2023-05-10T05:46:07;20.13;;;7.90;;
56045;SDS011;41913;51.030;3.706;2023-05-10T05:48:33;29.17;;;8.23;;
56045;SDS011;41913;51.030;3.706;2023-05-10T05:50:58;17.83;;;8.50;;
56045;SDS011;41913;51.030;3.706;2023-05-10T05:53:24;23.08;;;7.82;;
56045;SDS011;41913;51.030;3.706;2023-05-10T05:55:50;19.83;;;9.98;;
56045;SDS011;41913;51.030;3.706;2023-05-10T05:58:18;18.70;;;9.45;;
56045;SDS011;41913;51.030;3.706;2023-05-10T06:00:44;21.75;;;9.73;;
56045;SDS011;41913;51.030;3.706;2023-05-10T06:03:10;17.35;;;10.15;;
56045;SDS011;41913;51.030;3.706;2023-05-10T06:05:36;18.58;;;9.35;;
56045;SDS011;41913;51.030;3.706;2023-05-10T06:08:01;24.63;;;9.82;;
56045;SDS011;41913;51.030;3.706;2023-05-10T06:10:27;16.83;;;10.25;;
56045;SDS011;41913;51.030;3.706;2023-05-10T06:12:53;17.40;;;9.85;;
56045;SDS011;41913;51.030;3.706;2023-05-10T06:15:19;17.80;;;10.50;;
56045;SDS011;41913;51.030;3.706;2023-05-10T06:17:44;18.35;;;9.48;;
56045;SDS011;41913;51.030;3.706;2023-05-10T06:20:12;13.75;;;9.50;;
56045;SDS011;41913;51.030;3.706;2023-05-10T06:22:38;18.75;;;10.77;;
56045;SDS011;41913;51.030;3.706;2023-05-10T06:25:03;15.75;;;10.50;;
56045;SDS011;41913;51.030;3.706;2023-05-10T06:27:29;16.63;;;11.35;;
56045;SDS011;41913;51.030;3.706;2023-05-10T06:29:55;19.55;;;11.80;;
56045;SDS011;41913;51.030;3.706;2023-05-10T06:32:21;20.50;;;11.73;;
56045;SDS011;41913;51.030;3.706;2023-05-10T06:34:47;20.83;;;11.32;;
56045;SDS011;41913;51.030;3.706;2023-05-10T06:37:12;16.85;;;12.25;;
56045;SDS011;41913;51.030;3.706;2023-05-10T06:39:38;17.85;;;11.02;;
56045;SDS011;41913;51.030;3.706;2023-05-10T06:42:04;20.23;;;12.05;;
56045;SDS011;41913;51.030;3.706;2023-05-10T06:44:30;14.25;;;11.50;;
56045;SDS011;41913;51.030;3.706;2023-05-10T06:46:56;22.10;;;13.18;;
56045;SDS011;41913;51.030;3.706;2023-05-10T06:49:22;20.35;;;12.98;;
56045;SDS011;41913;51.030;3.706;2023-05-10T06:51:48;15.93;;;11.55;;
56045;SDS011;41913;51.030;3.706;2023-05-10T06:54:15;19.17;;;12.43;;
56045;SDS011;41913;51.030;3.706;2023-05-10T06:56:40;18.50;;;12.90;;
56045;SDS011;41913;51.030;3.706;2023-05-10T06:59:06;15.63;;;12.82;;
56045;SDS011;41913;51.030;3.706;2023-05-10T07:01:32;16.98;;;12.35;;
56045;SDS011;41913;51.030;3.706;2023-05-10T07:03:58;20.58;;;12.73;;
56045;SDS011;41913;51.030;3.706;2023-05-10T07:06:23;17.02;;;13.38;;
56045;SDS011;41913;51.030;3.706;2023-05-10T07:08:49;19.42;;;12.65;;
56045;SDS011;41913;51.030;3.706;2023-05-10T07:11:15;20.08;;;13.15;;
56045;SDS011;41913;51.030;3.706;2023-05-10T07:13:41;16.05;;;13.23;;
56045;SDS011;41913;51.030;3.706;2023-05-10T07:16:09;16.83;;;12.30;;
56045;SDS011;41913;51.030;3.706;2023-05-10T07:18:35;14.98;;;12.88;;
56045;SDS011;41913;51.030;3.706;2023-05-10T07:21:01;20.25;;;13.00;;
56045;SDS011;41913;51.030;3.706;2023-05-10T07:23:28;16.23;;;12.90;;
56045;SDS011;41913;51.030;3.706;2023-05-10T07:25:54;20.52;;;12.80;;
56045;SDS011;41913;51.030;3.706;2023-05-10T07:28:22;15.57;;;12.45;;
56045;SDS011;41913;51.030;3.706;2023-05-10T07:30:49;19.00;;;11.85;;
56045;SDS011;41913;51.030;3.706;2023-05-10T07:33:16;17.08;;;11.98;;
56045;SDS011;41913;51.030;3.706;2023-05-10T07:35:41;13.43;;;11.27;;
56045;SDS011;41913;51.030;3.706;2023-05-10T07:38:08;16.65;;;11.73;;
56045;SDS011;41913;51.030;3.706;2023-05-10T07:40:35;17.30;;;11.15;;
56045;SDS011;41913;51.030;3.706;2023-05-10T07:43:01;13.88;;;11.30;;
56045;SDS011;41913;51.030;3.706;2023-05-10T07:45:27;14.93;;;11.40;;
56045;SDS011;41913;51.030;3.706;2023-05-10T07:47:53;18.48;;;12.20;;
56045;SDS011;41913;51.030;3.706;2023-05-10T07:50:19;16.58;;;11.50;;
56045;SDS011;41913;51.030;3.706;2023-05-10T07:52:46;14.70;;;10.02;;
56045;SDS011;41913;51.030;3.706;2023-05-10T07:55:12;13.38;;;10.52;;
56045;SDS011;41913;51.030;3.706;2023-05-10T07:57:38;12.82;;;10.00;;
56045;SDS011;41913;51.030;3.706;2023-05-10T08:00:04;12.07;;;10.02;;
56045;SDS011;41913;51.030;3.706;2023-05-10T08:02:31;15.02;;;11.30;;
56045;SDS011;41913;51.030;3.706;2023-05-10T08:04:57;14.27;;;10.10;;
56045;SDS011;41913;51.030;3.706;2023-05-10T08:07:24;12.82;;;10.88;;
56045;SDS011;41913;51.030;3.706;2023-05-10T08:09:50;15.63;;;10.40;;
56045;SDS011;41913;51.030;3.706;2023-05-10T08:12:16;16.98;;;10.68;;
56045;SDS011;41913;51.030;3.706;2023-05-10T08:14:42;14.70;;;10.07;;
56045;SDS011;41913;51.030;3.706;2023-05-10T08:17:08;13.00;;;9.50;;
56045;SDS011;41913;51.030;3.706;2023-05-10T08:19:34;14.02;;;10.05;;
56045;SDS011;41913;51.030;3.706;2023-05-10T08:21:59;10.48;;;9.20;;
56045;SDS011;41913;51.030;3.706;2023-05-10T08:24:25;10.30;;;9.05;;
56045;SDS011;41913;51.030;3.706;2023-05-10T08:26:51;16.02;;;9.63;;
56045;SDS011;41913;51.030;3.706;2023-05-10T08:29:18;11.77;;;10.30;;
56045;SDS011;41913;51.030;3.706;2023-05-10T08:31:44;10.45;;;8.70;;
56045;SDS011;41913;51.030;3.706;2023-05-10T08:34:10;12.40;;;8.90;;
56045;SDS011;41913;51.030;3.706;2023-05-10T08:36:35;13.27;;;8.77;;
56045;SDS011;41913;51.030;3.706;2023-05-10T08:39:01;14.45;;;9.52;;
56045;SDS011;41913;51.030;3.706;2023-05-10T08:41:27;9.30;;;8.40;;
56045;SDS011;41913;51.030;3.706;2023-05-10T08:43:53;14.10;;;8.82;;
56045;SDS011;41913;51.030;3.706;2023-05-10T08:46:21;11.30;;;9.15;;
56045;SDS011;41913;51.030;3.706;2023-05-10T08:48:48;11.40;;;8.48;;
56045;SDS011;41913;51.030;3.706;2023-05-10T08:51:17;12.13;;;8.30;;
56045;SDS011;41913;51.030;3.706;2023-05-10T08:53:44;9.55;;;8.48;;
56045;SDS011;41913;51.030;3.706;2023-05-10T08:56:11;9.38;;;7.15;;
56045;SDS011;41913;51.030;3.706;2023-05-10T08:58:37;10.70;;;8.02;;
56045;SDS011;41913;51.030;3.706;2023-05-10T09:01:03;8.95;;;7.55;;
56045;SDS011;41913;51.030;3.706;2023-05-10T09:03:30;9.15;;;7.80;;
56045;SDS011;41913;51.030;3.706;2023-05-10T09:05:56;7.93;;;7.22;;
56045;SDS011;41913;51.030;3.706;2023-05-10T09:08:25;13.10;;;7.82;;
56045;SDS011;41913;51.030;3.706;2023-05-10T09:10:52;9.07;;;7.00;;
56045;SDS011;41913;51.030;3.706;2023-05-10T09:13:18;8.95;;;7.38;;
56045;SDS011;41913;51.030;3.706;2023-05-10T09:15:46;7.88;;;6.55;;
56045;SDS011;41913;51.030;3.706;2023-05-10T09:18:13;8.40;;;7.32;;
56045;SDS011;41913;51.030;3.706;2023-05-10T09:20:39;7.15;;;6.32;;
56045;SDS011;41913;51.030;3.706;2023-05-10T09:23:05;8.27;;;7.10;;
56045;SDS011;41913;51.030;3.706;2023-05-10T09:25:31;8.30;;;5.28;;
56045;SDS011;41913;51.030;3.706;2023-05-10T09:27:58;6.07;;;5.47;;
56045;SDS011;41913;51.030;3.706;2023-05-10T09:30:28;6.80;;;6.20;;
56045;SDS011;41913;51.030;3.706;2023-05-10T09:32:58;7.38;;;6.65;;
56045;SDS011;41913;51.030;3.706;2023-05-10T09:35:26;6.22;;;5.72;;
56045;SDS011;41913;51.030;3.706;2023-05-10T09:37:54;7.38;;;6.35;;
56045;SDS011;41913;51.030;3.706;2023-05-10T09:40:22;7.25;;;6.25;;
56045;SDS011;41913;51.030;3.706;2023-05-10T09:45:27;8.10;;;5.97;;
56045;SDS011;41913;51.030;3.706;2023-05-10T09:47:57;8.35;;;6.13;;
56045;SDS011;41913;51.030;3.706;2023-05-10T09:50:24;7.50;;;6.68;;
56045;SDS011;41913;51.030;3.706;2023-05-10T09:55:21;7.22;;;6.50;;
56045;SDS011;41913;51.030;3.706;2023-05-10T09:57:49;9.10;;;6.18;;
56045;SDS011;41913;51.030;3.706;2023-05-10T10:00:23;7.25;;;6.50;;
56045;SDS011;41913;51.030;3.706;2023-05-10T10:02:58;7.88;;;6.30;;
56045;SDS011;41913;51.030;3.706;2023-05-10T10:05:29;10.90;;;6.80;;
56045;SDS011;41913;51.030;3.706;2023-05-10T10:07:56;9.48;;;6.57;;
56045;SDS011;41913;51.030;3.706;2023-05-10T10:10:24;11.43;;;7.10;;
56045;SDS011;41913;51.030;3.706;2023-05-10T10:12:53;8.10;;;5.90;;
56045;SDS011;41913;51.030;3.706;2023-05-10T10:15:20;7.53;;;6.75;;
56045;SDS011;41913;51.030;3.706;2023-05-10T10:17:46;9.52;;;7.00;;
56045;SDS011;41913;51.030;3.706;2023-05-10T10:20:14;10.82;;;6.85;;
56045;SDS011;41913;51.030;3.706;2023-05-10T10:22:40;10.00;;;7.00;;
56045;SDS011;41913;51.030;3.706;2023-05-10T10:25:07;6.93;;;6.13;;
56045;SDS011;41913;51.030;3.706;2023-05-10T10:30:31;9.52;;;6.30;;
56045;SDS011;41913;51.030;3.706;2023-05-10T10:35:42;10.85;;;6.88;;
56045;SDS011;41913;51.030;3.706;2023-05-10T10:38:10;8.13;;;5.72;;
56045;SDS011;41913;51.030;3.706;2023-05-10T10:40:38;8.65;;;5.78;;
56045;SDS011;41913;51.030;3.706;2023-05-10T10:48:47;9.43;;;6.28;;
56045;SDS011;41913;51.030;3.706;2023-05-10T10:51:14;6.70;;;5.57;;
56045;SDS011;41913;51.030;3.706;2023-05-10T10:53:40;5.97;;;4.90;;
56045;SDS011;41913;51.030;3.706;2023-05-10T10:56:07;7.55;;;5.22;;
56045;SDS011;41913;51.030;3.706;2023-05-10T10:58:34;5.95;;;5.03;;
56045;SDS011;41913;51.030;3.706;2023-05-10T11:03:37;7.97;;;5.63;;
56045;SDS011;41913;51.030;3.706;2023-05-10T11:06:03;9.10;;;5.35;;
56045;SDS011;41913;51.030;3.706;2023-05-10T11:08:30;8.30;;;5.30;;
56045;SDS011;41913;51.030;3.706;2023-05-10T11:15:59;6.13;;;5.47;;
56045;SDS011;41913;51.030;3.706;2023-05-10T11:19:18;8.82;;;5.90;;
56045;SDS011;41913;51.030;3.706;2023-05-10T11:21:48;8.13;;;5.80;;
56045;SDS011;41913;51.030;3.706;2023-05-10T11:24:33;6.88;;;4.97;;
56045;SDS011;41913;51.030;3.706;2023-05-10T11:27:00;5.68;;;5.13;;
56045;SDS011;41913;51.030;3.706;2023-05-10T11:29:26;12.73;;;6.03;;
56045;SDS011;41913;51.030;3.706;2023-05-10T11:31:52;17.70;;;6.00;;
56045;SDS011;41913;51.030;3.706;2023-05-10T11:34:25;15.23;;;6.35;;
56045;SDS011;41913;51.030;3.706;2023-05-10T11:36:56;21.67;;;6.32;;
56045;SDS011;41913;51.030;3.706;2023-05-10T11:39:27;24.75;;;6.65;;
56045;SDS011;41913;51.030;3.706;2023-05-10T11:41:54;19.60;;;6.32;;
56045;SDS011;41913;51.030;3.706;2023-05-10T11:44:19;16.48;;;5.85;;
56045;SDS011;41913;51.030;3.706;2023-05-10T11:46:45;14.38;;;6.70;;
56045;SDS011;41913;51.030;3.706;2023-05-10T11:49:11;11.73;;;5.85;;
56045;SDS011;41913;51.030;3.706;2023-05-10T11:51:38;18.95;;;5.82;;
56045;SDS011;41913;51.030;3.706;2023-05-10T11:54:07;28.67;;;6.53;;
56045;SDS011;41913;51.030;3.706;2023-05-10T11:56:34;19.00;;;6.38;;
56045;SDS011;41913;51.030;3.706;2023-05-10T11:59:01;18.20;;;5.25;;
56045;SDS011;41913;51.030;3.706;2023-05-10T12:01:27;23.02;;;6.22;;
56045;SDS011;41913;51.030;3.706;2023-05-10T12:03:54;22.08;;;6.22;;
56045;SDS011;41913;51.030;3.706;2023-05-10T12:06:29;11.13;;;5.60;;
56045;SDS011;41913;51.030;3.706;2023-05-10T12:08:57;13.30;;;5.28;;
56045;SDS011;41913;51.030;3.706;2023-05-10T12:11:26;9.38;;;4.80;;
56045;SDS011;41913;51.030;3.706;2023-05-10T12:13:53;16.67;;;4.40;;
56045;SDS011;41913;51.030;3.706;2023-05-10T12:16:23;9.95;;;5.28;;
56045;SDS011;41913;51.030;3.706;2023-05-10T12:18:51;10.85;;;4.85;;
56045;SDS011;41913;51.030;3.706;2023-05-10T12:21:18;12.02;;;5.03;;
56045;SDS011;41913;51.030;3.706;2023-05-10T12:23:48;6.57;;;4.80;;
56045;SDS011;41913;51.030;3.706;2023-05-10T12:26:34;7.22;;;4.88;;
56045;SDS011;41913;51.030;3.706;2023-05-10T12:29:16;15.73;;;5.32;;
56045;SDS011;41913;51.030;3.706;2023-05-10T12:31:53;11.75;;;4.15;;
56045;SDS011;41913;51.030;3.706;2023-05-10T12:34:33;8.30;;;4.60;;
56045;SDS011;41913;51.030;3.706;2023-05-10T12:37:01;4.97;;;4.35;;
56045;SDS011;41913;51.030;3.706;2023-05-10T12:39:38;6.45;;;4.97;;
56045;SDS011;41913;51.030;3.706;2023-05-10T12:42:04;5.75;;;4.20;;
56045;SDS011;41913;51.030;3.706;2023-05-10T12:44:31;4.35;;;3.95;;
56045;SDS011;41913;51.030;3.706;2023-05-10T12:46:57;6.18;;;5.00;;
56045;SDS011;41913;51.030;3.706;2023-05-10T12:49:22;8.93;;;5.00;;
56045;SDS011;41913;51.030;3.706;2023-05-10T12:51:48;9.57;;;4.68;;
56045;SDS011;41913;51.030;3.706;2023-05-10T12:54:14;8.07;;;4.10;;
56045;SDS011;41913;51.030;3.706;2023-05-10T12:56:40;8.80;;;3.80;;
56045;SDS011;41913;51.030;3.706;2023-05-10T12:59:07;3.97;;;3.60;;
56045;SDS011;41913;51.030;3.706;2023-05-10T13:01:33;6.65;;;4.30;;
56045;SDS011;41913;51.030;3.706;2023-05-10T13:03:59;6.63;;;4.72;;
56045;SDS011;41913;51.030;3.706;2023-05-10T13:06:25;3.90;;;3.50;;
56045;SDS011;41913;51.030;3.706;2023-05-10T13:08:50;6.57;;;4.25;;
56045;SDS011;41913;51.030;3.706;2023-05-10T13:11:17;5.72;;;4.07;;
56045;SDS011;41913;51.030;3.706;2023-05-10T13:13:44;4.47;;;3.85;;
56045;SDS011;41913;51.030;3.706;2023-05-10T13:16:10;5.75;;;4.03;;
56045;SDS011;41913;51.030;3.706;2023-05-10T13:18:36;5.18;;;4.25;;
56045;SDS011;41913;51.030;3.706;2023-05-10T13:21:01;3.60;;;3.30;;
56045;SDS011;41913;51.030;3.706;2023-05-10T13:23:29;6.90;;;4.32;;
56045;SDS011;41913;51.030;3.706;2023-05-10T13:25:54;4.25;;;3.63;;
56045;SDS011;41913;51.030;3.706;2023-05-10T13:28:20;5.35;;;3.63;;
56045;SDS011;41913;51.030;3.706;2023-05-10T13:30:46;5.18;;;4.00;;
56045;SDS011;41913;51.030;3.706;2023-05-10T13:33:11;3.78;;;3.45;;
56045;SDS011;41913;51.030;3.706;2023-05-10T13:35:37;3.90;;;3.38;;
56045;SDS011;41913;51.030;3.706;2023-05-10T13:38:02;3.90;;;3.53;;
56045;SDS011;41913;51.030;3.706;2023-05-10T13:40:28;3.45;;;3.15;;
56045;SDS011;41913;51.030;3.706;2023-05-10T13:42:54;6.82;;;3.60;;
56045;SDS011;41913;51.030;3.706;2023-05-10T13:45:20;8.30;;;3.70;;
56045;SDS011;41913;51.030;3.706;2023-05-10T13:47:45;4.95;;;3.40;;
56045;SDS011;41913;51.030;3.706;2023-05-10T13:50:12;3.65;;;3.35;;
56045;SDS011;41913;51.030;3.706;2023-05-10T13:52:37;3.75;;;3.45;;
56045;SDS011;41913;51.030;3.706;2023-05-10T13:55:03;3.97;;;3.67;;
56045;SDS011;41913;51.030;3.706;2023-05-10T13:57:29;3.83;;;3.53;;
56045;SDS011;41913;51.030;3.706;2023-05-10T13:59:55;3.67;;;3.28;;
56045;SDS011;41913;51.030;3.706;2023-05-10T14:02:22;3.53;;;3.25;;
56045;SDS011;41913;51.030;3.706;2023-05-10T14:04:48;3.60;;;3.30;;
56045;SDS011;41913;51.030;3.706;2023-05-10T14:07:13;4.10;;;3.40;;
56045;SDS011;41913;51.030;3.706;2023-05-10T14:09:39;3.28;;;3.08;;
56045;SDS011;41913;51.030;3.706;2023-05-10T14:12:05;3.38;;;3.17;;
56045;SDS011;41913;51.030;3.706;2023-05-10T14:14:30;5.93;;;3.30;;
56045;SDS011;41913;51.030;3.706;2023-05-10T14:16:56;5.90;;;3.25;;
56045;SDS011;41913;51.030;3.706;2023-05-10T14:19:22;3.55;;;3.30;;
56045;SDS011;41913;51.030;3.706;2023-05-10T14:21:48;3.53;;;3.22;;
56045;SDS011;41913;51.030;3.706;2023-05-10T14:24:13;3.00;;;2.80;;
56045;SDS011;41913;51.030;3.706;2023-05-10T14:26:40;4.20;;;3.58;;
56045;SDS011;41913;51.030;3.706;2023-05-10T14:29:06;3.42;;;3.13;;
56045;SDS011;41913;51.030;3.706;2023-05-10T14:31:32;3.47;;;3.22;;
56045;SDS011;41913;51.030;3.706;2023-05-10T14:33:58;5.82;;;3.40;;
56045;SDS011;41913;51.030;3.706;2023-05-10T14:36:24;3.63;;;3.10;;
56045;SDS011;41913;51.030;3.706;2023-05-10T14:38:49;2.40;;;2.30;;
56045;SDS011;41913;51.030;3.706;2023-05-10T14:41:16;3.00;;;2.80;;
56045;SDS011;41913;51.030;3.706;2023-05-10T14:43:42;3.00;;;2.78;;
56045;SDS011;41913;51.030;3.706;2023-05-10T14:46:08;3.45;;;3.20;;
56045;SDS011;41913;51.030;3.706;2023-05-10T14:48:34;3.35;;;3.15;;
56045;SDS011;41913;51.030;3.706;2023-05-10T14:51:00;3.30;;;3.00;;
56045;SDS011;41913;51.030;3.706;2023-05-10T14:53:25;4.88;;;3.08;;
56045;SDS011;41913;51.030;3.706;2023-05-10T14:55:51;3.05;;;2.85;;
56045;SDS011;41913;51.030;3.706;2023-05-10T14:58:17;2.90;;;2.70;;
56045;SDS011;41913;51.030;3.706;2023-05-10T15:00:43;3.00;;;2.80;;
56045;SDS011;41913;51.030;3.706;2023-05-10T15:03:08;3.42;;;2.70;;
56045;SDS011;41913;51.030;3.706;2023-05-10T15:05:34;3.17;;;2.88;;
56045;SDS011;41913;51.030;3.706;2023-05-10T15:08:02;3.50;;;3.30;;
56045;SDS011;41913;51.030;3.706;2023-05-10T15:10:28;3.05;;;2.85;;
56045;SDS011;41913;51.030;3.706;2023-05-10T15:12:54;3.53;;;3.17;;
56045;SDS011;41913;51.030;3.706;2023-05-10T15:15:19;3.00;;;2.75;;
56045;SDS011;41913;51.030;3.706;2023-05-10T15:17:45;5.88;;;3.17;;
56045;SDS011;41913;51.030;3.706;2023-05-10T15:20:11;2.88;;;2.63;;
56045;SDS011;41913;51.030;3.706;2023-05-10T15:22:37;3.45;;;2.20;;
56045;SDS011;41913;51.030;3.706;2023-05-10T15:25:03;4.00;;;2.65;;